sensor_id;sensor_type;location;lat;lon;timestamp;P1;durP1;ratioP1;P2;durP2;ratioP2
44440;SDS011;30146;52.268;20.944;2023-02-03T00:00:50;4.80;;;4.20;;
44440;SDS011;30146;52.268;20.944;2023-02-03T00:03:21;7.50;;;4.30;;
44440;SDS011;30146;52.268;20.944;2023-02-03T00:05:52;6.70;;;4.50;;
44440;SDS011;30146;52.268;20.944;2023-02-03T00:08:23;6.40;;;4.30;;
44440;SDS011;30146;52.268;20.944;2023-02-03T00:10:54;9.90;;;4.70;;
44440;SDS011;30146;52.268;20.944;2023-02-03T00:13:26;8.80;;;4.40;;
44440;SDS011;30146;52.268;20.944;2023-02-03T00:15:58;6.50;;;4.10;;
44440;SDS011;30146;52.268;20.944;2023-02-03T00:18:29;4.90;;;3.50;;
44440;SDS011;30146;52.268;20.944;2023-02-03T00:21:00;6.20;;;4.80;;
44440;SDS011;30146;52.268;20.944;2023-02-03T00:23:31;6.80;;;3.70;;
44440;SDS011;30146;52.268;20.944;2023-02-03T00:26:06;5.40;;;3.40;;
44440;SDS011;30146;52.268;20.944;2023-02-03T00:28:39;5.50;;;3.80;;
44440;SDS011;30146;52.268;20.944;2023-02-03T00:31:15;10.30;;;4.40;;
44440;SDS011;30146;52.268;20.944;2023-02-03T00:33:47;5.20;;;3.70;;
44440;SDS011;30146;52.268;20.944;2023-02-03T00:36:24;6.50;;;4.10;;
44440;SDS011;30146;52.268;20.944;2023-02-03T00:38:55;5.90;;;3.80;;
44440;SDS011;30146;52.268;20.944;2023-02-03T00:41:29;8.50;;;3.90;;
44440;SDS011;30146;52.268;20.944;2023-02-03T00:44:00;6.70;;;3.70;;
44440;SDS011;30146;52.268;20.944;2023-02-03T00:46:31;7.30;;;4.00;;
44440;SDS011;30146;52.268;20.944;2023-02-03T00:49:03;6.20;;;3.50;;
44440;SDS011;30146;52.268;20.944;2023-02-03T00:51:35;8.20;;;4.10;;
44440;SDS011;30146;52.268;20.944;2023-02-03T00:54:06;9.00;;;4.00;;
44440;SDS011;30146;52.268;20.944;2023-02-03T00:56:37;8.60;;;4.00;;
44440;SDS011;30146;52.268;20.944;2023-02-03T00:59:08;6.70;;;3.70;;
44440;SDS011;30146;52.268;20.944;2023-02-03T01:01:39;6.20;;;3.40;;
44440;SDS011;30146;52.268;20.944;2023-02-03T01:04:10;7.40;;;4.10;;
44440;SDS011;30146;52.268;20.944;2023-02-03T01:06:41;4.70;;;3.10;;
44440;SDS011;30146;52.268;20.944;2023-02-03T01:09:12;5.20;;;3.60;;
44440;SDS011;30146;52.268;20.944;2023-02-03T01:11:43;7.30;;;3.40;;
44440;SDS011;30146;52.268;20.944;2023-02-03T01:14:14;9.20;;;3.30;;
44440;SDS011;30146;52.268;20.944;2023-02-03T01:16:45;8.20;;;3.90;;
44440;SDS011;30146;52.268;20.944;2023-02-03T01:19:17;6.40;;;3.30;;
44440;SDS011;30146;52.268;20.944;2023-02-03T01:21:48;7.50;;;3.60;;
44440;SDS011;30146;52.268;20.944;2023-02-03T01:24:19;7.00;;;3.60;;
44440;SDS011;30146;52.268;20.944;2023-02-03T01:26:50;4.60;;;3.50;;
44440;SDS011;30146;52.268;20.944;2023-02-03T01:29:21;6.30;;;3.80;;
44440;SDS011;30146;52.268;20.944;2023-02-03T01:31:52;4.50;;;3.30;;
44440;SDS011;30146;52.268;20.944;2023-02-03T01:34:23;7.00;;;3.50;;
44440;SDS011;30146;52.268;20.944;2023-02-03T01:36:54;5.60;;;3.60;;
44440;SDS011;30146;52.268;20.944;2023-02-03T01:39:25;6.60;;;3.20;;
44440;SDS011;30146;52.268;20.944;2023-02-03T01:41:56;5.60;;;3.50;;
44440;SDS011;30146;52.268;20.944;2023-02-03T01:44:43;6.70;;;3.70;;
44440;SDS011;30146;52.268;20.944;2023-02-03T01:47:23;6.00;;;3.80;;
44440;SDS011;30146;52.268;20.944;2023-02-03T01:50:12;8.90;;;3.50;;
44440;SDS011;30146;52.268;20.944;2023-02-03T01:52:48;8.50;;;3.50;;
44440;SDS011;30146;52.268;20.944;2023-02-03T01:55:22;5.20;;;3.40;;
44440;SDS011;30146;52.268;20.944;2023-02-03T01:57:58;4.20;;;3.50;;
44440;SDS011;30146;52.268;20.944;2023-02-03T02:00:31;5.30;;;3.30;;
44440;SDS011;30146;52.268;20.944;2023-02-03T02:03:02;6.80;;;3.40;;
44440;SDS011;30146;52.268;20.944;2023-02-03T02:08:40;4.10;;;3.20;;
44440;SDS011;30146;52.268;20.944;2023-02-03T02:13:54;5.60;;;3.10;;
44440;SDS011;30146;52.268;20.944;2023-02-03T02:16:30;4.60;;;3.40;;
44440;SDS011;30146;52.268;20.944;2023-02-03T02:19:16;5.50;;;3.50;;
44440;SDS011;30146;52.268;20.944;2023-02-03T02:22:11;7.20;;;3.40;;
44440;SDS011;30146;52.268;20.944;2023-02-03T02:24:52;5.40;;;3.10;;
44440;SDS011;30146;52.268;20.944;2023-02-03T02:27:51;5.50;;;3.30;;
44440;SDS011;30146;52.268;20.944;2023-02-03T02:30:50;6.90;;;2.60;;
44440;SDS011;30146;52.268;20.944;2023-02-03T02:33:37;5.40;;;3.00;;
44440;SDS011;30146;52.268;20.944;2023-02-03T02:36:18;5.20;;;2.80;;
44440;SDS011;30146;52.268;20.944;2023-02-03T02:38:58;3.80;;;2.80;;
44440;SDS011;30146;52.268;20.944;2023-02-03T02:41:38;5.30;;;3.10;;
44440;SDS011;30146;52.268;20.944;2023-02-03T02:44:15;4.70;;;3.00;;
44440;SDS011;30146;52.268;20.944;2023-02-03T02:46:51;4.50;;;3.20;;
44440;SDS011;30146;52.268;20.944;2023-02-03T02:49:28;7.00;;;3.80;;
44440;SDS011;30146;52.268;20.944;2023-02-03T02:52:03;4.70;;;2.90;;
44440;SDS011;30146;52.268;20.944;2023-02-03T02:54:36;5.30;;;3.20;;
44440;SDS011;30146;52.268;20.944;2023-02-03T02:57:10;9.50;;;3.10;;
44440;SDS011;30146;52.268;20.944;2023-02-03T02:59:45;4.70;;;2.80;;
44440;SDS011;30146;52.268;20.944;2023-02-03T03:02:16;4.90;;;3.00;;
44440;SDS011;30146;52.268;20.944;2023-02-03T03:04:47;5.00;;;3.00;;
44440;SDS011;30146;52.268;20.944;2023-02-03T03:07:21;3.60;;;2.90;;
44440;SDS011;30146;52.268;20.944;2023-02-03T03:09:56;7.20;;;3.10;;
44440;SDS011;30146;52.268;20.944;2023-02-03T03:12:30;7.40;;;3.30;;
44440;SDS011;30146;52.268;20.944;2023-02-03T03:15:05;7.40;;;3.20;;
44440;SDS011;30146;52.268;20.944;2023-02-03T03:17:40;5.80;;;3.20;;
44440;SDS011;30146;52.268;20.944;2023-02-03T03:20:17;5.00;;;2.90;;
44440;SDS011;30146;52.268;20.944;2023-02-03T03:22:52;6.20;;;3.60;;
44440;SDS011;30146;52.268;20.944;2023-02-03T03:25:29;4.60;;;3.20;;
44440;SDS011;30146;52.268;20.944;2023-02-03T03:28:06;5.10;;;2.90;;
44440;SDS011;30146;52.268;20.944;2023-02-03T03:30:40;7.30;;;3.30;;
44440;SDS011;30146;52.268;20.944;2023-02-03T03:33:11;6.00;;;3.70;;
44440;SDS011;30146;52.268;20.944;2023-02-03T03:35:44;4.40;;;3.00;;
44440;SDS011;30146;52.268;20.944;2023-02-03T03:38:20;8.60;;;3.40;;
44440;SDS011;30146;52.268;20.944;2023-02-03T03:41:00;5.50;;;3.00;;
44440;SDS011;30146;52.268;20.944;2023-02-03T03:43:37;7.80;;;3.70;;
44440;SDS011;30146;52.268;20.944;2023-02-03T03:46:12;7.60;;;4.10;;
44440;SDS011;30146;52.268;20.944;2023-02-03T03:48:47;9.50;;;3.90;;
44440;SDS011;30146;52.268;20.944;2023-02-03T03:51:23;5.30;;;3.80;;
44440;SDS011;30146;52.268;20.944;2023-02-03T03:53:58;5.40;;;4.00;;
44440;SDS011;30146;52.268;20.944;2023-02-03T03:56:36;5.70;;;4.10;;
44440;SDS011;30146;52.268;20.944;2023-02-03T03:59:10;4.90;;;3.80;;
44440;SDS011;30146;52.268;20.944;2023-02-03T04:01:45;6.90;;;4.10;;
44440;SDS011;30146;52.268;20.944;2023-02-03T04:04:16;7.40;;;4.20;;
44440;SDS011;30146;52.268;20.944;2023-02-03T04:06:48;5.50;;;4.20;;
44440;SDS011;30146;52.268;20.944;2023-02-03T04:09:20;8.10;;;4.80;;
44440;SDS011;30146;52.268;20.944;2023-02-03T04:11:51;9.90;;;4.60;;
44440;SDS011;30146;52.268;20.944;2023-02-03T04:14:33;7.10;;;4.40;;
44440;SDS011;30146;52.268;20.944;2023-02-03T04:17:05;6.00;;;4.30;;
44440;SDS011;30146;52.268;20.944;2023-02-03T04:19:37;6.30;;;4.60;;
44440;SDS011;30146;52.268;20.944;2023-02-03T04:22:07;5.70;;;4.30;;
44440;SDS011;30146;52.268;20.944;2023-02-03T04:24:38;8.10;;;4.60;;
44440;SDS011;30146;52.268;20.944;2023-02-03T04:27:09;7.00;;;5.00;;
44440;SDS011;30146;52.268;20.944;2023-02-03T04:29:41;7.80;;;4.90;;
44440;SDS011;30146;52.268;20.944;2023-02-03T04:32:14;7.90;;;4.20;;
44440;SDS011;30146;52.268;20.944;2023-02-03T04:34:45;10.10;;;5.10;;
44440;SDS011;30146;52.268;20.944;2023-02-03T04:37:16;8.80;;;5.30;;
44440;SDS011;30146;52.268;20.944;2023-02-03T04:39:47;7.40;;;4.90;;
44440;SDS011;30146;52.268;20.944;2023-02-03T04:42:19;8.30;;;4.90;;
44440;SDS011;30146;52.268;20.944;2023-02-03T04:44:50;9.00;;;5.20;;
44440;SDS011;30146;52.268;20.944;2023-02-03T04:47:21;7.40;;;5.50;;
44440;SDS011;30146;52.268;20.944;2023-02-03T04:49:52;9.70;;;6.10;;
44440;SDS011;30146;52.268;20.944;2023-02-03T04:52:23;13.60;;;5.70;;
44440;SDS011;30146;52.268;20.944;2023-02-03T04:54:54;9.60;;;5.50;;
44440;SDS011;30146;52.268;20.944;2023-02-03T04:57:25;10.10;;;5.80;;
44440;SDS011;30146;52.268;20.944;2023-02-03T04:59:55;9.50;;;6.50;;
44440;SDS011;30146;52.268;20.944;2023-02-03T05:02:26;9.00;;;6.00;;
44440;SDS011;30146;52.268;20.944;2023-02-03T05:04:57;10.60;;;6.40;;
44440;SDS011;30146;52.268;20.944;2023-02-03T05:07:28;9.80;;;5.80;;
44440;SDS011;30146;52.268;20.944;2023-02-03T05:09:58;8.00;;;6.30;;
44440;SDS011;30146;52.268;20.944;2023-02-03T05:12:29;11.90;;;6.80;;
44440;SDS011;30146;52.268;20.944;2023-02-03T05:15:00;8.90;;;6.40;;
44440;SDS011;30146;52.268;20.944;2023-02-03T05:17:31;10.70;;;6.10;;
44440;SDS011;30146;52.268;20.944;2023-02-03T05:20:06;15.40;;;7.00;;
44440;SDS011;30146;52.268;20.944;2023-02-03T05:22:38;8.30;;;6.50;;
44440;SDS011;30146;52.268;20.944;2023-02-03T05:25:09;9.10;;;6.10;;
44440;SDS011;30146;52.268;20.944;2023-02-03T05:27:42;11.20;;;6.90;;
44440;SDS011;30146;52.268;20.944;2023-02-03T05:30:13;8.50;;;6.00;;
44440;SDS011;30146;52.268;20.944;2023-02-03T05:32:44;9.20;;;6.10;;
44440;SDS011;30146;52.268;20.944;2023-02-03T05:35:16;12.70;;;6.10;;
44440;SDS011;30146;52.268;20.944;2023-02-03T05:37:47;10.10;;;6.00;;
44440;SDS011;30146;52.268;20.944;2023-02-03T05:40:18;12.80;;;6.10;;
44440;SDS011;30146;52.268;20.944;2023-02-03T05:43:06;12.00;;;6.20;;
44440;SDS011;30146;52.268;20.944;2023-02-03T05:45:37;8.60;;;6.60;;
44440;SDS011;30146;52.268;20.944;2023-02-03T05:48:08;10.50;;;6.30;;
44440;SDS011;30146;52.268;20.944;2023-02-03T05:50:39;8.20;;;5.30;;
44440;SDS011;30146;52.268;20.944;2023-02-03T05:53:10;10.30;;;6.00;;
44440;SDS011;30146;52.268;20.944;2023-02-03T05:55:41;12.50;;;6.50;;
44440;SDS011;30146;52.268;20.944;2023-02-03T05:58:12;10.20;;;6.00;;
44440;SDS011;30146;52.268;20.944;2023-02-03T06:00:43;7.40;;;5.20;;
44440;SDS011;30146;52.268;20.944;2023-02-03T06:03:14;12.70;;;6.50;;
44440;SDS011;30146;52.268;20.944;2023-02-03T06:05:45;14.10;;;7.40;;
44440;SDS011;30146;52.268;20.944;2023-02-03T06:08:16;20.40;;;9.80;;
44440;SDS011;30146;52.268;20.944;2023-02-03T06:10:46;11.70;;;6.70;;
44440;SDS011;30146;52.268;20.944;2023-02-03T06:13:17;9.80;;;6.50;;
44440;SDS011;30146;52.268;20.944;2023-02-03T06:15:48;12.50;;;6.30;;
44440;SDS011;30146;52.268;20.944;2023-02-03T06:18:19;7.60;;;5.40;;
44440;SDS011;30146;52.268;20.944;2023-02-03T06:20:50;10.00;;;5.50;;
44440;SDS011;30146;52.268;20.944;2023-02-03T06:23:21;9.10;;;5.40;;
44440;SDS011;30146;52.268;20.944;2023-02-03T06:25:51;7.20;;;5.40;;
44440;SDS011;30146;52.268;20.944;2023-02-03T06:28:22;13.50;;;6.40;;
44440;SDS011;30146;52.268;20.944;2023-02-03T06:30:53;13.10;;;5.90;;
44440;SDS011;30146;52.268;20.944;2023-02-03T06:33:24;8.20;;;5.30;;
44440;SDS011;30146;52.268;20.944;2023-02-03T06:35:55;7.40;;;5.50;;
44440;SDS011;30146;52.268;20.944;2023-02-03T06:38:26;13.20;;;5.90;;
44440;SDS011;30146;52.268;20.944;2023-02-03T06:40:57;17.10;;;9.50;;
44440;SDS011;30146;52.268;20.944;2023-02-03T06:43:27;15.50;;;8.20;;
44440;SDS011;30146;52.268;20.944;2023-02-03T06:45:58;13.90;;;6.60;;
44440;SDS011;30146;52.268;20.944;2023-02-03T06:48:29;10.40;;;6.20;;
44440;SDS011;30146;52.268;20.944;2023-02-03T06:51:00;10.40;;;6.20;;
44440;SDS011;30146;52.268;20.944;2023-02-03T06:53:32;18.50;;;10.00;;
44440;SDS011;30146;52.268;20.944;2023-02-03T06:56:03;15.30;;;8.00;;
44440;SDS011;30146;52.268;20.944;2023-02-03T06:58:34;15.20;;;6.70;;
44440;SDS011;30146;52.268;20.944;2023-02-03T07:01:05;11.20;;;6.20;;
44440;SDS011;30146;52.268;20.944;2023-02-03T07:03:36;12.90;;;6.60;;
44440;SDS011;30146;52.268;20.944;2023-02-03T07:06:07;10.50;;;6.30;;
44440;SDS011;30146;52.268;20.944;2023-02-03T07:08:38;9.40;;;5.90;;
44440;SDS011;30146;52.268;20.944;2023-02-03T07:11:09;11.00;;;6.20;;
44440;SDS011;30146;52.268;20.944;2023-02-03T07:13:40;14.20;;;5.80;;
44440;SDS011;30146;52.268;20.944;2023-02-03T07:16:11;11.30;;;6.40;;
44440;SDS011;30146;52.268;20.944;2023-02-03T07:18:43;13.80;;;6.90;;
44440;SDS011;30146;52.268;20.944;2023-02-03T07:21:15;13.20;;;7.00;;
44440;SDS011;30146;52.268;20.944;2023-02-03T07:23:47;12.90;;;6.50;;
44440;SDS011;30146;52.268;20.944;2023-02-03T07:26:18;15.00;;;7.60;;
44440;SDS011;30146;52.268;20.944;2023-02-03T07:28:50;18.80;;;6.90;;
44440;SDS011;30146;52.268;20.944;2023-02-03T07:31:21;12.10;;;6.80;;
44440;SDS011;30146;52.268;20.944;2023-02-03T07:33:52;11.20;;;6.70;;
44440;SDS011;30146;52.268;20.944;2023-02-03T07:36:23;13.60;;;7.40;;
44440;SDS011;30146;52.268;20.944;2023-02-03T07:38:55;14.00;;;7.70;;
44440;SDS011;30146;52.268;20.944;2023-02-03T07:41:25;13.50;;;7.20;;
44440;SDS011;30146;52.268;20.944;2023-02-03T07:43:56;11.40;;;7.40;;
44440;SDS011;30146;52.268;20.944;2023-02-03T07:46:27;11.80;;;7.00;;
44440;SDS011;30146;52.268;20.944;2023-02-03T07:48:58;15.50;;;8.10;;
44440;SDS011;30146;52.268;20.944;2023-02-03T07:51:31;12.00;;;7.20;;
44440;SDS011;30146;52.268;20.944;2023-02-03T07:54:06;11.30;;;6.40;;
44440;SDS011;30146;52.268;20.944;2023-02-03T07:56:37;13.90;;;6.00;;
44440;SDS011;30146;52.268;20.944;2023-02-03T07:59:08;10.20;;;5.10;;
44440;SDS011;30146;52.268;20.944;2023-02-03T08:01:38;15.00;;;5.90;;
44440;SDS011;30146;52.268;20.944;2023-02-03T08:04:09;12.90;;;6.10;;
44440;SDS011;30146;52.268;20.944;2023-02-03T08:06:43;9.40;;;5.10;;
44440;SDS011;30146;52.268;20.944;2023-02-03T08:09:14;9.80;;;4.90;;
44440;SDS011;30146;52.268;20.944;2023-02-03T08:11:46;9.00;;;5.60;;
44440;SDS011;30146;52.268;20.944;2023-02-03T08:17:02;14.30;;;5.10;;
44440;SDS011;30146;52.268;20.944;2023-02-03T08:19:33;13.90;;;6.00;;
44440;SDS011;30146;52.268;20.944;2023-02-03T08:22:04;13.90;;;6.40;;
44440;SDS011;30146;52.268;20.944;2023-02-03T08:24:38;19.20;;;11.00;;
44440;SDS011;30146;52.268;20.944;2023-02-03T08:27:13;12.60;;;6.10;;
44440;SDS011;30146;52.268;20.944;2023-02-03T08:29:45;10.60;;;5.20;;
44440;SDS011;30146;52.268;20.944;2023-02-03T08:32:17;10.90;;;5.20;;
44440;SDS011;30146;52.268;20.944;2023-02-03T08:34:52;8.90;;;4.60;;
44440;SDS011;30146;52.268;20.944;2023-02-03T08:37:23;9.60;;;5.90;;
44440;SDS011;30146;52.268;20.944;2023-02-03T08:39:55;9.70;;;4.70;;
44440;SDS011;30146;52.268;20.944;2023-02-03T08:42:26;10.20;;;4.60;;
44440;SDS011;30146;52.268;20.944;2023-02-03T08:44:57;12.60;;;5.00;;
44440;SDS011;30146;52.268;20.944;2023-02-03T08:47:32;10.10;;;4.90;;
44440;SDS011;30146;52.268;20.944;2023-02-03T08:50:05;9.60;;;4.90;;
44440;SDS011;30146;52.268;20.944;2023-02-03T08:52:37;11.90;;;5.90;;
44440;SDS011;30146;52.268;20.944;2023-02-03T08:55:08;14.50;;;7.90;;
44440;SDS011;30146;52.268;20.944;2023-02-03T08:57:39;9.20;;;5.30;;
44440;SDS011;30146;52.268;20.944;2023-02-03T09:00:12;7.80;;;4.50;;
44440;SDS011;30146;52.268;20.944;2023-02-03T09:02:44;9.30;;;5.30;;
44440;SDS011;30146;52.268;20.944;2023-02-03T09:05:15;8.90;;;5.20;;
44440;SDS011;30146;52.268;20.944;2023-02-03T09:07:46;12.30;;;4.50;;
44440;SDS011;30146;52.268;20.944;2023-02-03T09:10:17;8.50;;;4.10;;
44440;SDS011;30146;52.268;20.944;2023-02-03T09:12:48;12.20;;;5.20;;
44440;SDS011;30146;52.268;20.944;2023-02-03T09:15:19;7.10;;;4.30;;
44440;SDS011;30146;52.268;20.944;2023-02-03T09:17:50;8.30;;;4.50;;
44440;SDS011;30146;52.268;20.944;2023-02-03T09:20:24;9.10;;;4.10;;
44440;SDS011;30146;52.268;20.944;2023-02-03T09:22:58;7.30;;;4.40;;
44440;SDS011;30146;52.268;20.944;2023-02-03T09:25:30;9.70;;;4.80;;
44440;SDS011;30146;52.268;20.944;2023-02-03T09:28:01;6.50;;;4.10;;
44440;SDS011;30146;52.268;20.944;2023-02-03T09:30:34;7.90;;;3.60;;
44440;SDS011;30146;52.268;20.944;2023-02-03T09:33:05;9.50;;;3.50;;
44440;SDS011;30146;52.268;20.944;2023-02-03T09:35:36;8.50;;;3.50;;
44440;SDS011;30146;52.268;20.944;2023-02-03T09:38:07;5.00;;;3.50;;
44440;SDS011;30146;52.268;20.944;2023-02-03T09:40:39;8.00;;;3.90;;
44440;SDS011;30146;52.268;20.944;2023-02-03T09:43:15;9.30;;;3.80;;
44440;SDS011;30146;52.268;20.944;2023-02-03T09:46:06;8.20;;;3.40;;
44440;SDS011;30146;52.268;20.944;2023-02-03T09:48:42;5.10;;;3.30;;
44440;SDS011;30146;52.268;20.944;2023-02-03T09:51:17;5.20;;;3.50;;
44440;SDS011;30146;52.268;20.944;2023-02-03T09:53:54;6.00;;;3.70;;
44440;SDS011;30146;52.268;20.944;2023-02-03T09:56:30;6.20;;;3.20;;
44440;SDS011;30146;52.268;20.944;2023-02-03T09:59:04;6.10;;;3.80;;
44440;SDS011;30146;52.268;20.944;2023-02-03T10:01:39;17.20;;;10.40;;
44440;SDS011;30146;52.268;20.944;2023-02-03T10:04:22;7.90;;;4.00;;
44440;SDS011;30146;52.268;20.944;2023-02-03T10:07:04;9.00;;;4.10;;
44440;SDS011;30146;52.268;20.944;2023-02-03T10:09:44;7.10;;;3.30;;
44440;SDS011;30146;52.268;20.944;2023-02-03T10:12:31;13.30;;;4.80;;
44440;SDS011;30146;52.268;20.944;2023-02-03T10:15:32;9.90;;;3.40;;
44440;SDS011;30146;52.268;20.944;2023-02-03T10:18:17;7.10;;;3.50;;
44440;SDS011;30146;52.268;20.944;2023-02-03T10:20:53;6.90;;;3.20;;
44440;SDS011;30146;52.268;20.944;2023-02-03T10:23:27;10.10;;;4.50;;
44440;SDS011;30146;52.268;20.944;2023-02-03T10:26:02;5.90;;;3.30;;
44440;SDS011;30146;52.268;20.944;2023-02-03T10:28:36;7.50;;;4.60;;
44440;SDS011;30146;52.268;20.944;2023-02-03T10:31:14;5.70;;;3.00;;
44440;SDS011;30146;52.268;20.944;2023-02-03T10:33:48;5.80;;;3.10;;
44440;SDS011;30146;52.268;20.944;2023-02-03T10:36:30;7.50;;;3.10;;
44440;SDS011;30146;52.268;20.944;2023-02-03T10:39:11;5.20;;;3.00;;
44440;SDS011;30146;52.268;20.944;2023-02-03T10:41:50;9.90;;;3.50;;
44440;SDS011;30146;52.268;20.944;2023-02-03T10:44:23;7.10;;;3.80;;
44440;SDS011;30146;52.268;20.944;2023-02-03T10:46:59;4.60;;;2.90;;
44440;SDS011;30146;52.268;20.944;2023-02-03T10:49:29;5.70;;;2.90;;
44440;SDS011;30146;52.268;20.944;2023-02-03T10:52:00;4.90;;;2.70;;
44440;SDS011;30146;52.268;20.944;2023-02-03T10:54:32;4.80;;;2.80;;
44440;SDS011;30146;52.268;20.944;2023-02-03T10:57:05;4.30;;;3.00;;
44440;SDS011;30146;52.268;20.944;2023-02-03T10:59:43;4.60;;;2.80;;
44440;SDS011;30146;52.268;20.944;2023-02-03T11:02:23;3.90;;;3.00;;
44440;SDS011;30146;52.268;20.944;2023-02-03T11:07:47;5.50;;;2.50;;
44440;SDS011;30146;52.268;20.944;2023-02-03T11:10:29;6.60;;;3.20;;
44440;SDS011;30146;52.268;20.944;2023-02-03T11:13:11;6.80;;;3.40;;
44440;SDS011;30146;52.268;20.944;2023-02-03T11:15:46;10.50;;;5.70;;
44440;SDS011;30146;52.268;20.944;2023-02-03T11:18:34;6.20;;;3.20;;
44440;SDS011;30146;52.268;20.944;2023-02-03T11:21:09;6.70;;;3.30;;
44440;SDS011;30146;52.268;20.944;2023-02-03T11:23:44;4.90;;;3.40;;
44440;SDS011;30146;52.268;20.944;2023-02-03T11:26:20;6.90;;;4.60;;
44440;SDS011;30146;52.268;20.944;2023-02-03T11:28:55;8.70;;;3.00;;
44440;SDS011;30146;52.268;20.944;2023-02-03T11:31:29;4.50;;;3.50;;
44440;SDS011;30146;52.268;20.944;2023-02-03T11:34:03;5.30;;;2.80;;
44440;SDS011;30146;52.268;20.944;2023-02-03T11:36:42;3.90;;;2.70;;
44440;SDS011;30146;52.268;20.944;2023-02-03T11:39:26;4.00;;;2.90;;
44440;SDS011;30146;52.268;20.944;2023-02-03T11:42:09;6.70;;;3.20;;
44440;SDS011;30146;52.268;20.944;2023-02-03T11:44:51;4.30;;;2.70;;
44440;SDS011;30146;52.268;20.944;2023-02-03T11:47:44;9.80;;;2.70;;
44440;SDS011;30146;52.268;20.944;2023-02-03T11:50:19;5.60;;;2.90;;
44440;SDS011;30146;52.268;20.944;2023-02-03T11:53:04;11.30;;;3.20;;
44440;SDS011;30146;52.268;20.944;2023-02-03T11:55:53;4.70;;;2.90;;
44440;SDS011;30146;52.268;20.944;2023-02-03T11:58:51;4.30;;;2.90;;
44440;SDS011;30146;52.268;20.944;2023-02-03T12:04:17;8.40;;;2.50;;
44440;SDS011;30146;52.268;20.944;2023-02-03T12:07:01;6.30;;;2.90;;
44440;SDS011;30146;52.268;20.944;2023-02-03T12:10:01;5.10;;;2.70;;
44440;SDS011;30146;52.268;20.944;2023-02-03T12:12:43;6.00;;;2.80;;
44440;SDS011;30146;52.268;20.944;2023-02-03T12:15:26;8.60;;;3.00;;
44440;SDS011;30146;52.268;20.944;2023-02-03T12:18:10;11.60;;;3.60;;
44440;SDS011;30146;52.268;20.944;2023-02-03T12:21:05;7.20;;;3.60;;
44440;SDS011;30146;52.268;20.944;2023-02-03T12:23:52;5.90;;;3.70;;
44440;SDS011;30146;52.268;20.944;2023-02-03T12:26:32;3.80;;;2.60;;
44440;SDS011;30146;52.268;20.944;2023-02-03T12:29:08;3.80;;;2.90;;
44440;SDS011;30146;52.268;20.944;2023-02-03T12:31:43;4.90;;;3.10;;
44440;SDS011;30146;52.268;20.944;2023-02-03T12:34:20;5.40;;;3.40;;
44440;SDS011;30146;52.268;20.944;2023-02-03T12:36:57;5.00;;;3.60;;
44440;SDS011;30146;52.268;20.944;2023-02-03T12:39:32;4.60;;;3.10;;
44440;SDS011;30146;52.268;20.944;2023-02-03T12:42:12;6.50;;;4.00;;
44440;SDS011;30146;52.268;20.944;2023-02-03T12:44:47;7.80;;;3.60;;
44440;SDS011;30146;52.268;20.944;2023-02-03T12:47:25;4.70;;;3.00;;
44440;SDS011;30146;52.268;20.944;2023-02-03T12:50:02;6.20;;;3.80;;
44440;SDS011;30146;52.268;20.944;2023-02-03T12:52:36;6.50;;;3.50;;
44440;SDS011;30146;52.268;20.944;2023-02-03T12:55:17;5.40;;;3.40;;
44440;SDS011;30146;52.268;20.944;2023-02-03T12:57:56;6.60;;;3.50;;
44440;SDS011;30146;52.268;20.944;2023-02-03T13:00:33;5.80;;;3.80;;
44440;SDS011;30146;52.268;20.944;2023-02-03T13:03:08;5.70;;;3.30;;
44440;SDS011;30146;52.268;20.944;2023-02-03T13:05:46;8.20;;;3.20;;
44440;SDS011;30146;52.268;20.944;2023-02-03T13:08:24;9.50;;;3.20;;
44440;SDS011;30146;52.268;20.944;2023-02-03T13:11:11;7.40;;;4.50;;
44440;SDS011;30146;52.268;20.944;2023-02-03T13:16:22;4.60;;;3.00;;
44440;SDS011;30146;52.268;20.944;2023-02-03T13:18:57;12.90;;;4.60;;
44440;SDS011;30146;52.268;20.944;2023-02-03T13:21:31;13.80;;;4.70;;
44440;SDS011;30146;52.268;20.944;2023-02-03T13:24:03;8.30;;;4.20;;
44440;SDS011;30146;52.268;20.944;2023-02-03T13:26:44;7.40;;;4.10;;
44440;SDS011;30146;52.268;20.944;2023-02-03T13:29:48;8.00;;;4.50;;
44440;SDS011;30146;52.268;20.944;2023-02-03T13:32:33;8.70;;;4.70;;
44440;SDS011;30146;52.268;20.944;2023-02-03T13:35:22;8.60;;;4.30;;
44440;SDS011;30146;52.268;20.944;2023-02-03T13:38:12;13.90;;;6.10;;
44440;SDS011;30146;52.268;20.944;2023-02-03T13:41:00;10.80;;;4.90;;
44440;SDS011;30146;52.268;20.944;2023-02-03T13:43:36;12.40;;;4.50;;
44440;SDS011;30146;52.268;20.944;2023-02-03T13:46:18;9.80;;;5.40;;
44440;SDS011;30146;52.268;20.944;2023-02-03T13:48:52;15.00;;;6.60;;
44440;SDS011;30146;52.268;20.944;2023-02-03T13:51:25;9.40;;;5.80;;
44440;SDS011;30146;52.268;20.944;2023-02-03T13:54:02;9.50;;;5.30;;
44440;SDS011;30146;52.268;20.944;2023-02-03T13:59:26;5.70;;;4.10;;
44440;SDS011;30146;52.268;20.944;2023-02-03T14:05:01;11.60;;;4.50;;
44440;SDS011;30146;52.268;20.944;2023-02-03T14:07:34;10.70;;;6.20;;
44440;SDS011;30146;52.268;20.944;2023-02-03T14:10:23;10.60;;;5.70;;
44440;SDS011;30146;52.268;20.944;2023-02-03T14:13:17;10.40;;;5.70;;
44440;SDS011;30146;52.268;20.944;2023-02-03T14:16:00;12.30;;;5.10;;
44440;SDS011;30146;52.268;20.944;2023-02-03T14:18:50;11.90;;;6.00;;
44440;SDS011;30146;52.268;20.944;2023-02-03T14:21:25;8.70;;;5.30;;
44440;SDS011;30146;52.268;20.944;2023-02-03T14:24:09;8.60;;;4.80;;
44440;SDS011;30146;52.268;20.944;2023-02-03T14:26:47;10.30;;;5.80;;
44440;SDS011;30146;52.268;20.944;2023-02-03T14:29:25;9.10;;;5.80;;
44440;SDS011;30146;52.268;20.944;2023-02-03T14:32:00;12.00;;;6.30;;
44440;SDS011;30146;52.268;20.944;2023-02-03T14:34:33;9.20;;;6.20;;
44440;SDS011;30146;52.268;20.944;2023-02-03T14:37:15;16.30;;;6.30;;
44440;SDS011;30146;52.268;20.944;2023-02-03T14:49:07;10.00;;;4.90;;
44440;SDS011;30146;52.268;20.944;2023-02-03T14:51:59;12.60;;;6.30;;
44440;SDS011;30146;52.268;20.944;2023-02-03T14:54:47;10.30;;;6.70;;
44440;SDS011;30146;52.268;20.944;2023-02-03T14:57:37;10.30;;;6.30;;
44440;SDS011;30146;52.268;20.944;2023-02-03T15:00:28;8.50;;;6.20;;
44440;SDS011;30146;52.268;20.944;2023-02-03T15:03:18;9.50;;;6.60;;
44440;SDS011;30146;52.268;20.944;2023-02-03T15:05:57;10.50;;;6.10;;
44440;SDS011;30146;52.268;20.944;2023-02-03T15:08:31;15.60;;;5.80;;
44440;SDS011;30146;52.268;20.944;2023-02-03T15:11:23;13.10;;;7.00;;
44440;SDS011;30146;52.268;20.944;2023-02-03T15:13:57;15.10;;;6.70;;
44440;SDS011;30146;52.268;20.944;2023-02-03T15:16:46;11.60;;;6.10;;
44440;SDS011;30146;52.268;20.944;2023-02-03T15:19:22;15.80;;;8.20;;
44440;SDS011;30146;52.268;20.944;2023-02-03T15:21:55;9.60;;;6.70;;
44440;SDS011;30146;52.268;20.944;2023-02-03T15:24:32;12.00;;;7.50;;
44440;SDS011;30146;52.268;20.944;2023-02-03T15:27:05;10.70;;;6.50;;
44440;SDS011;30146;52.268;20.944;2023-02-03T15:32:21;9.50;;;6.00;;
44440;SDS011;30146;52.268;20.944;2023-02-03T15:34:56;9.20;;;4.50;;
44440;SDS011;30146;52.268;20.944;2023-02-03T15:37:29;6.20;;;5.00;;
44440;SDS011;30146;52.268;20.944;2023-02-03T15:40:05;11.90;;;5.90;;
44440;SDS011;30146;52.268;20.944;2023-02-03T15:42:42;9.20;;;4.90;;
44440;SDS011;30146;52.268;20.944;2023-02-03T15:45:25;12.50;;;7.00;;
44440;SDS011;30146;52.268;20.944;2023-02-03T15:48:03;10.70;;;6.40;;
44440;SDS011;30146;52.268;20.944;2023-02-03T15:50:42;8.10;;;4.70;;
44440;SDS011;30146;52.268;20.944;2023-02-03T15:55:48;12.70;;;6.70;;